createdAt,value
2023-03-06T00:00:01.045Z,100002.03
2023-03-06T00:02:28.664Z,99996.00
2023-03-06T00:04:56.258Z,99991.38
2023-03-06T00:07:23.908Z,99986.91
2023-03-06T00:09:51.491Z,99990.09
2023-03-06T00:12:19.128Z,99987.28
2023-03-06T00:14:46.806Z,99988.84
2023-03-06T00:17:15.766Z,99977.34
2023-03-06T00:19:43.364Z,99984.91
2023-03-06T00:22:11.439Z,99976.47
2023-03-06T00:24:39.045Z,99976.75
2023-03-06T00:27:06.674Z,99966.78
2023-03-06T00:29:34.316Z,99963.50
2023-03-06T00:32:02.047Z,99958.19
2023-03-06T00:34:31.070Z,99956.88
2023-03-06T00:36:58.693Z,99958.78
2023-03-06T00:39:26.656Z,99950.59
2023-03-06T00:41:55.504Z,99949.34
2023-03-06T00:44:25.783Z,99947.81
2023-03-06T00:46:53.386Z,99936.81
2023-03-06T00:49:21.001Z,99931.09
2023-03-06T00:51:50.013Z,99927.75
2023-03-06T00:54:17.630Z,99925.13
2023-03-06T00:56:45.856Z,99920.00
2023-03-06T00:59:13.504Z,99917.22
2023-03-06T01:01:41.138Z,99918.31
2023-03-06T01:04:08.796Z,99917.53
2023-03-06T01:06:36.443Z,99906.97
2023-03-06T01:09:05.646Z,99904.25
2023-03-06T01:11:33.271Z,99899.56
2023-03-06T01:14:00.924Z,99900.31
2023-03-06T01:16:28.554Z,99895.13
2023-03-06T01:18:56.218Z,99883.97
2023-03-06T01:21:23.883Z,99879.88
2023-03-06T01:23:51.503Z,99879.13
2023-03-06T01:26:20.496Z,99872.22
2023-03-06T01:28:48.124Z,99868.47
2023-03-06T01:31:15.820Z,99858.25
2023-03-06T01:33:43.586Z,99858.50
2023-03-06T01:36:12.680Z,99852.72
2023-03-06T01:38:40.298Z,99849.56
2023-03-06T01:41:07.989Z,99841.13
2023-03-06T01:43:37.248Z,99838.69
2023-03-06T01:46:22.835Z,99844.13
2023-03-06T01:48:52.046Z,99831.16
2023-03-06T01:51:19.708Z,99832.84
2023-03-06T01:53:47.682Z,99825.41
2023-03-06T01:56:15.407Z,99825.03
2023-03-06T01:58:44.550Z,99813.22
2023-03-06T02:01:12.438Z,99824.47
2023-03-06T02:03:40.107Z,99818.56
2023-03-06T02:06:07.937Z,99815.25
2023-03-06T02:08:35.595Z,99813.25
2023-03-06T02:11:06.149Z,99806.81
2023-03-06T02:13:33.795Z,99806.16
2023-03-06T02:16:02.766Z,99806.81
2023-03-06T02:18:30.379Z,99797.81
2023-03-06T02:20:58.790Z,99795.94
2023-03-06T02:23:28.502Z,99801.69
2023-03-06T02:25:57.464Z,99794.75
2023-03-06T02:28:25.719Z,99796.66
2023-03-06T02:30:54.040Z,99788.72
2023-03-06T02:33:22.630Z,99790.63
2023-03-06T02:35:51.179Z,99784.47
2023-03-06T02:38:19.289Z,99784.84
2023-03-06T02:40:48.312Z,99786.56
2023-03-06T02:43:18.073Z,99781.81
2023-03-06T02:45:46.604Z,99780.75
2023-03-06T02:48:14.404Z,99774.28
2023-03-06T02:50:42.480Z,99777.69
2023-03-06T02:53:10.834Z,99774.50
2023-03-06T02:55:38.612Z,99780.47
2023-03-06T02:58:06.460Z,99770.19
2023-03-06T03:00:35.618Z,99768.88
2023-03-06T03:03:05.778Z,99753.59
2023-03-06T03:05:33.396Z,99766.00
2023-03-06T03:08:09.040Z,99758.28
2023-03-06T03:10:36.734Z,99761.84
2023-03-06T03:13:04.362Z,99758.97
2023-03-06T03:15:33.045Z,99755.00
2023-03-06T03:18:02.087Z,99742.41
2023-03-06T03:20:29.793Z,99745.13
2023-03-06T03:22:57.437Z,99749.06
2023-03-06T03:25:25.457Z,99750.53
2023-03-06T03:27:56.094Z,99744.28
2023-03-06T03:30:24.166Z,99755.63
2023-03-06T03:32:51.820Z,99756.47
2023-03-06T03:35:22.058Z,99745.38
2023-03-06T03:37:49.727Z,99748.44
2023-03-06T03:40:17.957Z,99738.38
2023-03-06T03:42:45.578Z,99744.63
2023-03-06T03:45:13.882Z,99741.91
2023-03-06T03:47:42.018Z,99739.88
2023-03-06T03:50:11.378Z,99742.25
2023-03-06T03:52:40.710Z,99740.63
2023-03-06T03:55:09.059Z,99736.34
2023-03-06T03:57:39.340Z,99737.09
2023-03-06T04:00:09.882Z,99728.84
2023-03-06T04:02:52.592Z,99733.59
2023-03-06T04:05:34.643Z,99734.97
2023-03-06T04:08:05.490Z,99731.25
2023-03-06T04:10:34.528Z,99739.31
2023-03-06T04:13:03.432Z,99736.06
2023-03-06T04:15:31.556Z,99747.84
2023-03-06T04:18:01.164Z,99745.78
2023-03-06T04:20:30.645Z,99746.31
2023-03-06T04:23:00.695Z,99744.47
2023-03-06T04:25:29.747Z,99750.88
2023-03-06T04:27:58.978Z,99741.16
2023-03-06T04:30:26.970Z,99753.41
2023-03-06T04:32:54.562Z,99755.09
2023-03-06T04:35:22.308Z,99760.41
2023-03-06T04:37:57.403Z,99756.09
2023-03-06T04:40:28.234Z,99756.44
2023-03-06T04:42:57.985Z,99748.53
2023-03-06T04:45:25.731Z,99755.03
2023-03-06T04:47:53.396Z,99760.63
2023-03-06T04:50:21.344Z,99765.94
2023-03-06T04:52:48.990Z,99765.78
2023-03-06T04:55:17.241Z,99767.09
2023-03-06T04:57:45.858Z,99764.13
2023-03-06T05:00:16.022Z,99770.19
2023-03-06T05:02:43.762Z,99768.47
2023-03-06T05:05:12.023Z,99767.38
2023-03-06T05:07:39.744Z,99770.13
2023-03-06T05:10:09.651Z,99767.75
2023-03-06T05:12:38.005Z,99768.06
2023-03-06T05:15:06.044Z,99757.22
2023-03-06T05:17:35.051Z,99763.69
2023-03-06T05:20:02.846Z,99768.78
2023-03-06T05:22:30.494Z,99775.63
2023-03-06T05:24:58.101Z,99776.44
2023-03-06T05:27:25.711Z,99774.28
2023-03-06T05:29:53.406Z,99775.16
2023-03-06T05:32:21.062Z,99783.50
2023-03-06T05:34:50.229Z,99776.00
2023-03-06T05:37:17.831Z,99774.78
2023-03-06T05:39:45.623Z,99773.38
2023-03-06T05:42:13.240Z,99772.69
2023-03-06T05:44:41.744Z,99777.63
2023-03-06T05:47:09.389Z,99777.41
2023-03-06T05:49:37.185Z,99783.97
2023-03-06T05:52:06.818Z,99784.16
2023-03-06T05:54:34.950Z,99776.06
2023-03-06T05:57:04.166Z,99784.34
2023-03-06T05:59:33.045Z,99784.53
2023-03-06T06:02:01.130Z,99778.81
2023-03-06T06:04:28.993Z,99788.03
2023-03-06T06:06:57.453Z,99784.09
2023-03-06T06:09:26.943Z,99787.03
2023-03-06T06:11:54.844Z,99788.38
2023-03-06T06:14:22.806Z,99801.44
2023-03-06T06:16:50.480Z,99788.34
2023-03-06T06:19:20.252Z,99795.94
2023-03-06T06:21:48.723Z,99799.31
2023-03-06T06:24:17.803Z,99797.59
2023-03-06T06:26:46.992Z,99806.47
2023-03-06T06:29:14.645Z,99799.22
2023-03-06T06:31:42.414Z,99802.78
2023-03-06T06:34:11.025Z,99800.22
2023-03-06T06:36:38.810Z,99801.09
2023-03-06T06:39:06.637Z,99798.25
2023-03-06T06:41:51.825Z,99799.81
2023-03-06T06:44:22.394Z,99793.44
2023-03-06T06:47:21.806Z,99803.03
2023-03-06T06:49:43.970Z,99799.25
2023-03-06T06:52:11.716Z,99789.47
2023-03-06T06:54:39.381Z,99797.75
2023-03-06T06:57:07.070Z,99806.22
2023-03-06T06:59:36.052Z,99813.72
2023-03-06T07:02:03.939Z,99802.06
2023-03-06T07:04:31.631Z,99810.75
2023-03-06T07:06:59.420Z,99801.94
2023-03-06T07:09:27.092Z,99813.31
2023-03-06T07:11:54.718Z,99805.38
2023-03-06T07:14:22.448Z,99800.84
2023-03-06T07:16:51.428Z,99808.47
2023-03-06T07:19:19.461Z,99803.31
2023-03-06T07:21:47.123Z,99802.84
2023-03-06T07:24:14.783Z,99812.47
2023-03-06T07:26:42.438Z,99803.88
2023-03-06T07:29:10.314Z,99808.91
2023-03-06T07:31:38.081Z,99812.03
2023-03-06T07:34:07.178Z,99817.28
2023-03-06T07:36:34.990Z,99810.19
2023-03-06T07:39:02.759Z,99815.13
2023-03-06T07:41:30.368Z,99808.28
2023-03-06T07:43:58.090Z,99815.00
2023-03-06T07:46:25.819Z,99811.38
2023-03-06T07:48:53.494Z,99805.81
2023-03-06T07:51:22.846Z,99808.19
2023-03-06T07:53:50.688Z,99809.06
2023-03-06T07:56:18.364Z,99811.25
2023-03-06T07:58:46.366Z,99808.97
2023-03-06T08:01:14.740Z,99817.72
2023-03-06T08:03:42.457Z,99812.94
2023-03-06T08:06:10.829Z,99810.88
2023-03-06T08:08:40.467Z,99809.38
2023-03-06T08:11:08.636Z,99813.13
2023-03-06T08:13:38.533Z,99809.59
2023-03-06T08:16:06.659Z,99815.34
2023-03-06T08:18:34.819Z,99808.75
2023-03-06T08:21:03.377Z,99814.94
2023-03-06T08:23:31.015Z,99817.38
2023-03-06T08:26:00.694Z,99818.28
2023-03-06T08:28:28.525Z,99818.91
2023-03-06T08:30:56.272Z,99818.94
2023-03-06T08:33:24.097Z,99820.97
2023-03-06T08:35:51.792Z,99818.94
2023-03-06T08:38:19.470Z,99822.13
2023-03-06T08:40:47.103Z,99820.28
2023-03-06T08:43:16.108Z,99824.94
2023-03-06T08:45:43.772Z,99829.84
2023-03-06T08:48:11.437Z,99824.47
2023-03-06T08:50:39.164Z,99832.84
2023-03-06T08:53:06.795Z,99828.66
2023-03-06T08:55:36.885Z,99823.84
2023-03-06T08:58:04.620Z,99835.63
2023-03-06T09:00:33.790Z,99845.38
2023-03-06T09:03:01.751Z,99844.53
2023-03-06T09:05:29.507Z,99849.44
2023-03-06T09:07:57.272Z,99846.53
2023-03-06T09:10:25.912Z,99854.34
2023-03-06T09:12:55.125Z,99842.56
2023-03-06T09:15:23.641Z,99844.44
2023-03-06T09:17:54.059Z,99853.44
2023-03-06T09:20:22.071Z,99841.78
2023-03-06T09:22:49.755Z,99841.50
2023-03-06T09:25:20.325Z,99844.47
2023-03-06T09:27:55.428Z,99848.69
2023-03-06T09:30:29.774Z,99841.84
2023-03-06T09:32:58.850Z,99845.59
2023-03-06T09:35:26.626Z,99840.75
2023-03-06T09:37:54.344Z,99844.97
2023-03-06T09:40:25.392Z,99839.31
2023-03-06T09:42:52.971Z,99851.09
2023-03-06T09:45:21.819Z,99847.75
2023-03-06T09:47:51.408Z,99843.41
2023-03-06T09:50:23.078Z,99839.00
2023-03-06T09:52:53.995Z,99838.66
2023-03-06T09:55:22.267Z,99836.66
2023-03-06T09:57:53.919Z,99840.38
2023-03-06T10:00:24.439Z,99834.66
2023-03-06T10:02:55.488Z,99839.59
2023-03-06T10:05:25.944Z,99844.00
2023-03-06T10:07:54.472Z,99842.41
2023-03-06T10:10:24.113Z,99834.06
2023-03-06T10:12:54.965Z,99840.84
2023-03-06T10:15:23.163Z,99848.63
2023-03-06T10:17:50.784Z,99838.69
2023-03-06T10:20:19.700Z,99851.75
2023-03-06T10:23:00.826Z,99839.91
2023-03-06T10:25:31.867Z,99840.19
2023-03-06T10:27:59.930Z,99850.69
2023-03-06T10:30:29.225Z,99843.91
2023-03-06T10:32:58.476Z,99851.69
2023-03-06T10:35:30.395Z,99856.88
2023-03-06T10:38:02.108Z,99843.09
2023-03-06T10:40:31.629Z,99844.41
2023-03-06T10:43:11.104Z,99841.50
2023-03-06T10:45:49.170Z,99847.28
2023-03-06T10:48:19.177Z,99846.09
2023-03-06T10:50:46.760Z,99833.66
2023-03-06T10:53:20.335Z,99842.94
2023-03-06T10:55:52.001Z,99844.69
2023-03-06T10:58:20.339Z,99838.88
2023-03-06T11:00:47.983Z,99842.22
2023-03-06T11:03:17.710Z,99842.00
2023-03-06T11:05:54.296Z,99841.66
2023-03-06T11:08:23.503Z,99847.88
2023-03-06T11:10:56.252Z,99838.34
2023-03-06T11:13:24.789Z,99843.63
2023-03-06T11:15:56.388Z,99840.78
2023-03-06T11:18:28.524Z,99840.13
2023-03-06T11:20:56.494Z,99838.72
2023-03-06T11:23:26.296Z,99847.66
2023-03-06T11:25:56.112Z,99837.75
2023-03-06T11:28:24.913Z,99834.72
2023-03-06T11:30:53.144Z,99829.13
2023-03-06T11:33:21.344Z,99835.53
2023-03-06T11:35:53.206Z,99836.13
2023-03-06T11:38:21.908Z,99830.41
2023-03-06T11:40:52.792Z,99820.25
2023-03-06T11:43:21.784Z,99825.53
2023-03-06T11:45:52.207Z,99821.75
2023-03-06T11:48:22.220Z,99823.16
2023-03-06T11:50:50.639Z,99816.59
2023-03-06T11:53:18.664Z,99813.09
2023-03-06T11:55:47.507Z,99816.47
2023-03-06T11:58:26.719Z,99815.81
2023-03-06T12:00:54.776Z,99807.72
2023-03-06T12:03:26.861Z,99804.38
2023-03-06T12:05:54.771Z,99799.25
2023-03-06T12:08:40.419Z,99810.47
2023-03-06T12:11:11.294Z,99810.03
2023-03-06T12:13:42.471Z,99806.94
2023-03-06T12:16:15.939Z,99805.06
2023-03-06T12:18:45.811Z,99808.00
2023-03-06T12:21:16.114Z,99797.38
2023-03-06T12:23:46.533Z,99795.25
2023-03-06T12:26:19.882Z,99800.09
2023-03-06T12:28:54.653Z,99797.53
2023-03-06T12:31:28.117Z,99797.31
2023-03-06T12:33:58.438Z,99802.75
2023-03-06T12:36:29.572Z,99791.34
2023-03-06T12:39:01.439Z,99793.69
2023-03-06T12:41:35.142Z,99799.06
2023-03-06T12:44:23.815Z,99794.88
2023-03-06T12:46:54.712Z,99790.78
2023-03-06T12:49:32.046Z,99791.38
2023-03-06T12:52:00.449Z,99791.78
2023-03-06T12:54:28.707Z,99793.63
2023-03-06T12:56:56.676Z,99794.03
2023-03-06T12:59:37.571Z,99793.97
2023-03-06T13:02:23.874Z,99793.19
2023-03-06T13:04:56.439Z,99799.81
2023-03-06T13:07:34.336Z,99788.19
2023-03-06T13:10:13.714Z,99781.94
2023-03-06T13:12:54.193Z,99780.16
2023-03-06T13:15:30.228Z,99786.44
2023-03-06T13:17:57.873Z,99777.09
2023-03-06T13:20:37.092Z,99776.19
2023-03-06T13:23:25.526Z,99776.88
2023-03-06T13:25:53.215Z,99777.56
2023-03-06T13:28:25.410Z,99783.63
2023-03-06T13:30:53.447Z,99791.63
2023-03-06T13:33:39.790Z,99785.09
2023-03-06T13:36:22.256Z,99771.59
2023-03-06T13:38:56.637Z,99766.06
2023-03-06T13:41:41.905Z,99761.59
2023-03-06T13:44:30.663Z,99752.50
2023-03-06T13:46:58.800Z,99762.19
2023-03-06T13:49:26.560Z,99763.66
2023-03-06T13:52:02.359Z,99756.47
2023-03-06T13:54:32.433Z,99758.59
2023-03-06T13:57:20.809Z,99769.16
2023-03-06T14:00:14.160Z,99769.50
2023-03-06T14:02:42.785Z,99767.47
2023-03-06T14:05:11.931Z,99766.97
2023-03-06T14:07:41.671Z,99761.56
2023-03-06T14:10:16.200Z,99769.69
2023-03-06T14:12:45.550Z,99757.84
2023-03-06T14:15:15.327Z,99766.66
2023-03-06T14:17:46.957Z,99753.72
2023-03-06T14:20:15.340Z,99753.00
2023-03-06T14:22:44.398Z,99746.44
2023-03-06T14:25:15.286Z,99752.59
2023-03-06T14:27:44.090Z,99754.88
2023-03-06T14:30:13.472Z,99755.25
2023-03-06T14:32:41.149Z,99746.25
2023-03-06T14:35:20.704Z,99750.56
2023-03-06T14:37:52.408Z,99750.63
2023-03-06T14:40:20.834Z,99751.22
2023-03-06T14:42:48.424Z,99754.94
2023-03-06T14:45:17.070Z,99756.94
2023-03-06T14:47:44.996Z,99756.16
2023-03-06T14:50:19.820Z,99753.56
2023-03-06T14:52:47.422Z,99750.38
2023-03-06T14:55:18.398Z,99748.72
2023-03-06T14:57:46.093Z,99744.16
2023-03-06T15:00:17.287Z,99738.13
2023-03-06T15:02:45.083Z,99739.06
2023-03-06T15:05:15.724Z,99744.38
2023-03-06T15:07:43.314Z,99745.50
2023-03-06T15:10:21.058Z,99746.56
2023-03-06T15:12:50.093Z,99750.13
2023-03-06T15:15:28.816Z,99749.72
2023-03-06T15:17:56.405Z,99743.94
2023-03-06T15:20:42.624Z,99744.59
2023-03-06T15:23:17.142Z,99738.66
2023-03-06T15:25:50.994Z,99730.13
2023-03-06T15:28:25.773Z,99736.00
2023-03-06T15:31:02.160Z,99733.81
2023-03-06T15:33:29.874Z,99739.16
2023-03-06T15:35:57.852Z,99742.28
2023-03-06T15:38:26.749Z,99733.28
2023-03-06T15:40:55.255Z,99730.22
2023-03-06T15:43:22.852Z,99724.88
2023-03-06T15:45:51.842Z,99728.88
2023-03-06T15:48:19.483Z,99732.78
2023-03-06T15:50:47.175Z,99736.50
2023-03-06T15:53:14.881Z,99724.31
2023-03-06T15:55:42.484Z,99740.44
2023-03-06T15:58:13.098Z,99732.28
2023-03-06T16:00:40.902Z,99736.69
2023-03-06T16:03:11.451Z,99730.47
2023-03-06T16:05:39.116Z,99738.59
2023-03-06T16:08:06.770Z,99731.00
2023-03-06T16:10:35.210Z,99736.00
2023-03-06T16:13:03.643Z,99736.31
2023-03-06T16:15:33.081Z,99737.41
2023-03-06T16:18:00.772Z,99732.59
2023-03-06T16:20:30.176Z,99735.91
2023-03-06T16:22:57.810Z,99735.09
2023-03-06T16:25:26.095Z,99727.00
2023-03-06T16:27:55.421Z,99726.19
2023-03-06T16:30:24.000Z,99735.28
2023-03-06T16:32:51.648Z,99730.38
2023-03-06T16:35:19.440Z,99730.16
2023-03-06T16:37:48.840Z,99735.16
2023-03-06T16:40:18.889Z,99736.09
2023-03-06T16:42:46.599Z,99743.16
2023-03-06T16:45:14.665Z,99744.31
2023-03-06T16:47:42.329Z,99742.72
2023-03-06T16:50:10.857Z,99741.25
2023-03-06T16:52:38.500Z,99744.41
2023-03-06T16:55:07.721Z,99740.22
2023-03-06T16:57:35.708Z,99745.56
2023-03-06T17:00:03.377Z,99746.34
2023-03-06T17:02:31.037Z,99745.53
2023-03-06T17:04:58.779Z,99754.13
2023-03-06T17:07:26.393Z,99760.75
2023-03-06T17:09:54.005Z,99759.19
2023-03-06T17:12:23.042Z,99763.69
2023-03-06T17:14:50.676Z,99759.22
2023-03-06T17:17:19.178Z,99771.59
2023-03-06T17:19:47.531Z,99774.59
2023-03-06T17:22:15.902Z,99763.25
2023-03-06T17:24:43.812Z,99778.00
2023-03-06T17:27:11.409Z,99777.88
2023-03-06T17:29:40.800Z,99772.84
2023-03-06T17:32:08.653Z,99781.94
2023-03-06T17:34:36.351Z,99778.13
2023-03-06T17:37:04.043Z,99779.94
2023-03-06T17:39:32.607Z,99786.16
2023-03-06T17:42:00.217Z,99787.34
2023-03-06T17:44:27.879Z,99786.25
2023-03-06T17:46:56.831Z,99788.78
2023-03-06T17:49:25.273Z,99785.66
2023-03-06T17:51:53.079Z,99790.69
2023-03-06T17:54:20.869Z,99789.78
2023-03-06T17:56:48.482Z,99787.84
2023-03-06T17:59:16.123Z,99786.34
2023-03-06T18:01:45.012Z,99792.31
2023-03-06T18:04:14.080Z,99785.69
2023-03-06T18:06:41.711Z,99784.00
2023-03-06T18:09:10.014Z,99782.50
2023-03-06T18:11:38.039Z,99780.81
2023-03-06T18:14:05.803Z,99784.41
2023-03-06T18:16:34.663Z,99784.56
2023-03-06T18:19:05.343Z,99784.78
2023-03-06T18:21:34.535Z,99796.19
2023-03-06T18:24:02.130Z,99781.09
2023-03-06T18:26:30.176Z,99781.16
2023-03-06T18:28:58.501Z,99787.56
2023-03-06T18:31:27.587Z,99781.81
2023-03-06T18:33:55.934Z,99785.03
2023-03-06T18:36:23.870Z,99787.13
2023-03-06T18:38:52.997Z,99787.13
2023-03-06T18:41:20.738Z,99791.28
2023-03-06T18:43:51.978Z,99782.56
2023-03-06T18:46:19.580Z,99788.00
2023-03-06T18:48:47.315Z,99783.28
2023-03-06T18:51:15.108Z,99785.88
2023-03-06T18:53:42.841Z,99790.47
2023-03-06T18:56:15.061Z,99787.09
2023-03-06T18:58:42.683Z,99778.72
2023-03-06T19:01:10.475Z,99774.84
2023-03-06T19:03:38.178Z,99778.72
2023-03-06T19:06:06.137Z,99775.69
2023-03-06T19:08:33.900Z,99782.81
2023-03-06T19:11:05.569Z,99779.91
2023-03-06T19:13:34.657Z,99783.13
2023-03-06T19:16:02.433Z,99783.94
2023-03-06T19:18:30.770Z,99780.03
2023-03-06T19:21:07.757Z,99785.00
2023-03-06T19:23:35.449Z,99782.84
2023-03-06T19:26:03.061Z,99777.91
2023-03-06T19:28:30.779Z,99770.91
2023-03-06T19:30:59.740Z,99771.47
2023-03-06T19:33:27.415Z,99774.25
2023-03-06T19:35:55.066Z,99769.75
2023-03-06T19:38:22.810Z,99771.81
2023-03-06T19:40:50.680Z,99769.28
2023-03-06T19:43:18.391Z,99767.00
2023-03-06T19:45:46.113Z,99771.16
2023-03-06T19:48:15.342Z,99767.25
2023-03-06T19:50:42.991Z,99773.56
2023-03-06T19:53:10.999Z,99771.16
2023-03-06T19:55:38.757Z,99769.09
2023-03-06T19:58:06.446Z,99773.56
2023-03-06T20:00:34.489Z,99768.34
2023-03-06T20:03:02.141Z,99771.97
2023-03-06T20:05:31.312Z,99771.69
2023-03-06T20:07:59.141Z,99774.00
2023-03-06T20:10:26.969Z,99766.22
2023-03-06T20:12:54.639Z,99768.94
2023-03-06T20:15:22.930Z,99771.50
2023-03-06T20:17:50.693Z,99763.00
2023-03-06T20:20:19.246Z,99762.16
2023-03-06T20:22:48.263Z,99764.69
2023-03-06T20:25:15.905Z,99760.38
2023-03-06T20:27:43.819Z,99763.84
2023-03-06T20:30:12.061Z,99752.63
2023-03-06T20:32:39.930Z,99756.19
2023-03-06T20:35:08.237Z,99757.81
2023-03-06T20:37:35.942Z,99756.00
2023-03-06T20:40:08.781Z,99758.53
2023-03-06T20:42:36.693Z,99745.13
2023-03-06T20:45:04.492Z,99741.94
2023-03-06T20:47:32.150Z,99738.06
2023-03-06T20:49:59.735Z,99742.31
2023-03-06T20:52:27.422Z,99725.47
2023-03-06T20:54:55.025Z,99715.44
2023-03-06T20:57:24.016Z,99720.59
2023-03-06T20:59:51.636Z,99725.63
2023-03-06T21:02:19.304Z,99723.66
2023-03-06T21:04:46.934Z,99716.44
2023-03-06T21:07:19.766Z,99716.19
2023-03-06T21:09:49.537Z,99721.28
2023-03-06T21:12:17.170Z,99711.94
2023-03-06T21:14:46.201Z,99708.06
2023-03-06T21:17:14.017Z,99715.00
2023-03-06T21:19:42.402Z,99710.66
2023-03-06T21:22:10.682Z,99704.94
2023-03-06T21:24:38.331Z,99702.25
2023-03-06T21:27:05.991Z,99707.38
2023-03-06T21:29:33.659Z,99704.09
2023-03-06T21:32:03.273Z,99695.13
2023-03-06T21:34:30.934Z,99696.03
2023-03-06T21:36:58.823Z,99697.75
2023-03-06T21:39:26.480Z,99686.56
2023-03-06T21:41:54.184Z,99686.75
2023-03-06T21:44:21.828Z,99683.38
2023-03-06T21:46:49.447Z,99685.94
2023-03-06T21:49:18.534Z,99680.44
2023-03-06T21:51:46.203Z,99676.88
2023-03-06T21:54:14.277Z,99683.44
2023-03-06T21:56:41.985Z,99682.38
2023-03-06T21:59:09.714Z,99682.53
2023-03-06T22:01:37.511Z,99677.28
2023-03-06T22:04:05.190Z,99685.84
2023-03-06T22:06:34.298Z,99671.88
2023-03-06T22:09:02.329Z,99672.00
2023-03-06T22:11:31.224Z,99681.16
2023-03-06T22:13:58.988Z,99665.31
2023-03-06T22:16:26.639Z,99663.22
2023-03-06T22:18:54.250Z,99666.53
2023-03-06T22:21:23.075Z,99653.63
2023-03-06T22:23:52.858Z,99652.03
2023-03-06T22:26:20.758Z,99646.72
2023-03-06T22:28:48.364Z,99644.19
2023-03-06T22:31:17.213Z,99635.78
2023-03-06T22:33:44.969Z,99634.94
2023-03-06T22:36:13.191Z,99633.19
2023-03-06T22:38:41.526Z,99629.88
2023-03-06T22:41:10.898Z,99628.22
2023-03-06T22:43:38.554Z,99626.66
2023-03-06T22:46:07.096Z,99622.38
2023-03-06T22:48:35.034Z,99625.97
2023-03-06T22:51:03.447Z,99616.53
2023-03-06T22:53:31.185Z,99609.84
2023-03-06T22:55:59.188Z,99607.41
2023-03-06T22:58:34.077Z,99605.56
2023-03-06T23:01:04.580Z,99603.78
2023-03-06T23:03:32.231Z,99596.38
2023-03-06T23:05:59.868Z,99599.78
2023-03-06T23:08:27.587Z,99601.25
2023-03-06T23:10:55.225Z,99597.00
2023-03-06T23:13:42.849Z,99594.53
2023-03-06T23:16:29.330Z,99597.16
2023-03-06T23:19:15.426Z,99593.94
2023-03-06T23:22:01.662Z,99599.72
2023-03-06T23:24:47.922Z,99596.09
2023-03-06T23:27:16.837Z,99582.91
2023-03-06T23:29:45.901Z,99579.22
2023-03-06T23:32:13.512Z,99580.06
2023-03-06T23:34:41.153Z,99585.13
2023-03-06T23:37:08.745Z,99582.00
2023-03-06T23:39:37.254Z,99582.50
2023-03-06T23:42:04.972Z,99581.19
2023-03-06T23:44:32.606Z,99569.78
2023-03-06T23:47:01.528Z,99569.78
2023-03-06T23:49:29.137Z,99572.38
2023-03-06T23:51:56.764Z,99562.50
2023-03-06T23:54:24.425Z,99556.59
2023-03-06T23:56:52.166Z,99553.72
2023-03-06T23:59:19.775Z,99556.94
